Huvudsida
METAR-TAF:

METAR-TAF

Flygplatser :

Kangān, Iran

latitud: 27-49-14N, longitud: 52-21-08E, höjd: 662 m

Aktuellt väderrapport

Denna rapport gjordes för 7 timmar och 59 minuter sedan, klockan 15:00 UTC
Vind 6 kt från väst
Temperatur 20°C
Fuktighet 56%
Tryck 1017 hPa
Sikt 10 km eller mer
Få moln på en höjd av 3000 ft, Högtornande cumulus.

METAR: OIBJ 151500Z 26006KT 9999 FEW030TCU 20/11 Q1017

Tid: 02:29 (22:59 UTC)


TAF: saknas

Aktuella väderrapporter och prognoser från 4000 flygplatser (METAR- och TAF-rapporter).

De tillgängliga stationerna syns som gula och röda prickar på kartan.

För musen över prickarna för att se namnen på stationerna.

Klicka sedan för att få väderrapporter och prognoser.

För att ändra kartan: Klicka på de gröna knapparna med ett svart kors på för att zooma in; den gröna knappen med ett streck på för att zooma ut; eller på de gröna pilarna för angränsande kartor.


METAR-TAF: